Terminal Aerodrome Forecast
Issued by NWS

Home | Current Version | Previous Version | Text Only | Print | Product List | Glossary On
Versions: 1 2 3 4 5 6 7 8 9 10 11 12 13 14 15 16 17 18 19 20 21 22 23 24 25 26 27
000
FTAK31 PAFA 312115 AAA
TAFAOR
TAF AMD
PAOR 312115Z 3121/0118 31011G21KT P6SM VCSH OVC045
     FM010300 32016G22KT P6SM -SHRA OVC050
     FM010900 31010KT P6SM BKN100=

USA.gov is the U.S. government's official web portal to all federal, state and local government web resources and services.